sensor_id;sensor_type;location;lat;lon;timestamp;pressure;altitude;pressure_sealevel;temperature;humidity
9141;BME280;46330;50.822;7.126;2023-05-07T00:01:00;100932.22;;;14.39;100.00
9141;BME280;46330;50.822;7.126;2023-05-07T00:03:28;100935.03;;;14.33;100.00
9141;BME280;46330;50.822;7.126;2023-05-07T00:05:56;100928.13;;;14.29;100.00
9141;BME280;46330;50.822;7.126;2023-05-07T00:08:25;100923.06;;;14.23;100.00
9141;BME280;46330;50.822;7.126;2023-05-07T00:10:53;100937.19;;;14.19;100.00
9141;BME280;46330;50.822;7.126;2023-05-07T00:13:21;100929.31;;;14.19;100.00
9141;BME280;46330;50.822;7.126;2023-05-07T00:15:49;100928.44;;;14.18;100.00
9141;BME280;46330;50.822;7.126;2023-05-07T00:18:18;100929.59;;;14.08;100.00
9141;BME280;46330;50.822;7.126;2023-05-07T00:20:49;100924.59;;;14.00;100.00
9141;BME280;46330;50.822;7.126;2023-05-07T00:23:16;100934.19;;;14.01;100.00
9141;BME280;46330;50.822;7.126;2023-05-07T00:25:44;100920.44;;;13.92;100.00
9141;BME280;46330;50.822;7.126;2023-05-07T00:28:12;100924.88;;;13.90;100.00
9141;BME280;46330;50.822;7.126;2023-05-07T00:30:40;100924.75;;;13.94;100.00
9141;BME280;46330;50.822;7.126;2023-05-07T00:33:08;100931.78;;;13.94;100.00
9141;BME280;46330;50.822;7.126;2023-05-07T00:35:37;100936.19;;;13.93;100.00
9141;BME280;46330;50.822;7.126;2023-05-07T00:38:05;100931.72;;;13.95;100.00
9141;BME280;46330;50.822;7.126;2023-05-07T00:40:33;100934.34;;;13.95;100.00
9141;BME280;46330;50.822;7.126;2023-05-07T00:43:01;100932.47;;;14.00;100.00
9141;BME280;46330;50.822;7.126;2023-05-07T00:45:30;100929.00;;;13.98;100.00
9141;BME280;46330;50.822;7.126;2023-05-07T00:48:00;100929.78;;;14.02;100.00
9141;BME280;46330;50.822;7.126;2023-05-07T00:50:29;100934.16;;;14.03;100.00
9141;BME280;46330;50.822;7.126;2023-05-07T00:52:58;100924.63;;;13.99;100.00
9141;BME280;46330;50.822;7.126;2023-05-07T00:55:27;100926.34;;;14.00;100.00
9141;BME280;46330;50.822;7.126;2023-05-07T00:57:56;100930.53;;;14.07;100.00
9141;BME280;46330;50.822;7.126;2023-05-07T01:00:24;100927.81;;;14.10;100.00
9141;BME280;46330;50.822;7.126;2023-05-07T01:02:52;100927.72;;;14.13;100.00
9141;BME280;46330;50.822;7.126;2023-05-07T01:05:23;100931.16;;;14.15;100.00
9141;BME280;46330;50.822;7.126;2023-05-07T01:07:53;100927.47;;;14.21;100.00
9141;BME280;46330;50.822;7.126;2023-05-07T01:10:24;100931.00;;;14.20;100.00
9141;BME280;46330;50.822;7.126;2023-05-07T01:12:53;100923.28;;;14.14;100.00
9141;BME280;46330;50.822;7.126;2023-05-07T01:15:22;100915.66;;;14.06;100.00
9141;BME280;46330;50.822;7.126;2023-05-07T01:17:50;100915.56;;;14.09;100.00
9141;BME280;46330;50.822;7.126;2023-05-07T01:20:24;100913.03;;;14.05;100.00
9141;BME280;46330;50.822;7.126;2023-05-07T01:22:56;100910.50;;;14.01;100.00
9141;BME280;46330;50.822;7.126;2023-05-07T01:25:25;100912.34;;;13.98;100.00
9141;BME280;46330;50.822;7.126;2023-05-07T01:27:56;100910.66;;;13.97;100.00
9141;BME280;46330;50.822;7.126;2023-05-07T01:30:29;100906.97;;;14.02;100.00
9141;BME280;46330;50.822;7.126;2023-05-07T01:33:02;100904.22;;;14.07;100.00
9141;BME280;46330;50.822;7.126;2023-05-07T01:35:34;100900.03;;;14.00;100.00
9141;BME280;46330;50.822;7.126;2023-05-07T01:38:05;100897.59;;;13.94;100.00
9141;BME280;46330;50.822;7.126;2023-05-07T01:40:34;100897.63;;;13.92;100.00
9141;BME280;46330;50.822;7.126;2023-05-07T01:43:02;100901.19;;;13.91;100.00
9141;BME280;46330;50.822;7.126;2023-05-07T01:45:33;100906.56;;;13.87;100.00
9141;BME280;46330;50.822;7.126;2023-05-07T01:48:02;100897.00;;;13.84;100.00
9141;BME280;46330;50.822;7.126;2023-05-07T01:50:30;100898.75;;;13.84;100.00
9141;BME280;46330;50.822;7.126;2023-05-07T01:53:01;100890.84;;;13.85;100.00
9141;BME280;46330;50.822;7.126;2023-05-07T01:55:30;100893.53;;;13.82;100.00
9141;BME280;46330;50.822;7.126;2023-05-07T01:57:59;100892.63;;;13.83;100.00
9141;BME280;46330;50.822;7.126;2023-05-07T02:00:27;100890.84;;;13.85;100.00
9141;BME280;46330;50.822;7.126;2023-05-07T02:02:55;100892.63;;;13.83;100.00
9141;BME280;46330;50.822;7.126;2023-05-07T02:05:37;100893.41;;;13.87;100.00
9141;BME280;46330;50.822;7.126;2023-05-07T02:08:12;100889.13;;;13.83;100.00
9141;BME280;46330;50.822;7.126;2023-05-07T02:10:42;100889.28;;;13.78;100.00
9141;BME280;46330;50.822;7.126;2023-05-07T02:13:10;100886.75;;;13.75;100.00
9141;BME280;46330;50.822;7.126;2023-05-07T02:15:38;100884.06;;;13.77;100.00
9141;BME280;46330;50.822;7.126;2023-05-07T02:18:08;100890.06;;;13.82;100.00
9141;BME280;46330;50.822;7.126;2023-05-07T02:20:37;100887.53;;;13.77;100.00
9141;BME280;46330;50.822;7.126;2023-05-07T02:23:05;100892.00;;;13.75;100.00
9141;BME280;46330;50.822;7.126;2023-05-07T02:25:33;100890.25;;;13.76;100.00
9141;BME280;46330;50.822;7.126;2023-05-07T02:28:02;100895.53;;;13.74;100.00
9141;BME280;46330;50.822;7.126;2023-05-07T02:30:42;100901.72;;;13.72;100.00
9141;BME280;46330;50.822;7.126;2023-05-07T02:33:10;100904.47;;;13.67;100.00
9141;BME280;46330;50.822;7.126;2023-05-07T02:35:39;100892.94;;;13.73;100.00
9141;BME280;46330;50.822;7.126;2023-05-07T02:38:08;100900.88;;;13.71;100.00
9141;BME280;46330;50.822;7.126;2023-05-07T02:40:38;100906.22;;;13.68;100.00
9141;BME280;46330;50.822;7.126;2023-05-07T02:43:07;100907.88;;;13.71;100.00
9141;BME280;46330;50.822;7.126;2023-05-07T02:45:36;100907.16;;;13.66;100.00
9141;BME280;46330;50.822;7.126;2023-05-07T02:48:06;100902.00;;;13.63;100.00
9141;BME280;46330;50.822;7.126;2023-05-07T02:50:34;100909.03;;;13.61;100.00
9141;BME280;46330;50.822;7.126;2023-05-07T02:53:02;100909.97;;;13.60;100.00
9141;BME280;46330;50.822;7.126;2023-05-07T02:55:30;100911.72;;;13.59;100.00
9141;BME280;46330;50.822;7.126;2023-05-07T02:57:58;100906.38;;;13.62;100.00
9141;BME280;46330;50.822;7.126;2023-05-07T03:00:27;100904.78;;;13.57;100.00
9141;BME280;46330;50.822;7.126;2023-05-07T03:03:09;100902.94;;;13.60;100.00
9141;BME280;46330;50.822;7.126;2023-05-07T03:05:37;100904.91;;;13.52;100.00
9141;BME280;46330;50.822;7.126;2023-05-07T03:08:05;100900.44;;;13.56;100.00
9141;BME280;46330;50.822;7.126;2023-05-07T03:10:34;100901.31;;;13.55;100.00
9141;BME280;46330;50.822;7.126;2023-05-07T03:13:03;100897.78;;;13.57;100.00
9141;BME280;46330;50.822;7.126;2023-05-07T03:15:33;100911.56;;;13.64;100.00
9141;BME280;46330;50.822;7.126;2023-05-07T03:18:01;100900.25;;;13.62;100.00
9141;BME280;46330;50.822;7.126;2023-05-07T03:20:29;100891.50;;;13.61;100.00
9141;BME280;46330;50.822;7.126;2023-05-07T03:22:57;100888.75;;;13.66;100.00
9141;BME280;46330;50.822;7.126;2023-05-07T03:25:25;100889.66;;;13.65;100.00
9141;BME280;46330;50.822;7.126;2023-05-07T03:27:53;100891.34;;;13.67;100.00
9141;BME280;46330;50.822;7.126;2023-05-07T03:30:24;100892.25;;;13.66;100.00
9141;BME280;46330;50.822;7.126;2023-05-07T03:32:54;100886.41;;;13.57;100.00
9141;BME280;46330;50.822;7.126;2023-05-07T03:35:22;100886.34;;;13.58;100.00
9141;BME280;46330;50.822;7.126;2023-05-07T03:37:50;100881.91;;;13.60;100.00
9141;BME280;46330;50.822;7.126;2023-05-07T03:40:19;100887.19;;;13.59;100.00
9141;BME280;46330;50.822;7.126;2023-05-07T03:42:51;100882.63;;;13.65;100.00
9141;BME280;46330;50.822;7.126;2023-05-07T03:45:22;100888.88;;;13.61;100.00
9141;BME280;46330;50.822;7.126;2023-05-07T03:48:00;100886.47;;;13.54;100.00
9141;BME280;46330;50.822;7.126;2023-05-07T03:50:28;100879.53;;;13.51;100.00
9141;BME280;46330;50.822;7.126;2023-05-07T03:52:56;100890.06;;;13.51;100.00
9141;BME280;46330;50.822;7.126;2023-05-07T03:55:24;100892.78;;;13.48;100.00
9141;BME280;46330;50.822;7.126;2023-05-07T03:57:58;100891.97;;;13.44;100.00
9141;BME280;46330;50.822;7.126;2023-05-07T04:00:27;100897.25;;;13.44;100.00
9141;BME280;46330;50.822;7.126;2023-05-07T04:03:01;100901.56;;;13.45;100.00
9141;BME280;46330;50.822;7.126;2023-05-07T04:05:30;100904.88;;;13.54;100.00
9141;BME280;46330;50.822;7.126;2023-05-07T04:08:01;100910.06;;;13.55;100.00
9141;BME280;46330;50.822;7.126;2023-05-07T04:10:36;100910.00;;;13.58;100.00
9141;BME280;46330;50.822;7.126;2023-05-07T04:13:08;100908.22;;;13.59;100.00
9141;BME280;46330;50.822;7.126;2023-05-07T04:15:37;100909.03;;;13.61;100.00
9141;BME280;46330;50.822;7.126;2023-05-07T04:18:10;100914.28;;;13.62;100.00
9141;BME280;46330;50.822;7.126;2023-05-07T04:20:41;100918.63;;;13.63;100.00
9141;BME280;46330;50.822;7.126;2023-05-07T04:23:11;100910.91;;;13.57;100.00
9141;BME280;46330;50.822;7.126;2023-05-07T04:25:40;100917.25;;;13.48;100.00
9141;BME280;46330;50.822;7.126;2023-05-07T04:28:22;100914.59;;;13.50;100.00
9141;BME280;46330;50.822;7.126;2023-05-07T04:30:50;100909.44;;;13.47;100.00
9141;BME280;46330;50.822;7.126;2023-05-07T04:33:21;100914.59;;;13.50;100.00
9141;BME280;46330;50.822;7.126;2023-05-07T04:35:50;100920.47;;;13.60;100.00
9141;BME280;46330;50.822;7.126;2023-05-07T04:38:18;100916.38;;;13.50;100.00
9141;BME280;46330;50.822;7.126;2023-05-07T04:40:49;100919.84;;;13.50;100.00
9141;BME280;46330;50.822;7.126;2023-05-07T04:43:21;100919.78;;;13.53;100.00
9141;BME280;46330;50.822;7.126;2023-05-07T04:45:51;100912.94;;;13.46;100.00
9141;BME280;46330;50.822;7.126;2023-05-07T04:48:24;100911.28;;;13.42;100.00
9141;BME280;46330;50.822;7.126;2023-05-07T04:50:53;100912.09;;;13.45;100.00
9141;BME280;46330;50.822;7.126;2023-05-07T04:53:21;100912.16;;;13.42;100.00
9141;BME280;46330;50.822;7.126;2023-05-07T04:55:55;100919.06;;;13.48;100.00
9141;BME280;46330;50.822;7.126;2023-05-07T04:58:26;100914.78;;;13.42;100.00
9141;BME280;46330;50.822;7.126;2023-05-07T05:00:58;100906.03;;;13.42;100.00
9141;BME280;46330;50.822;7.126;2023-05-07T05:03:29;100906.00;;;13.43;100.00
9141;BME280;46330;50.822;7.126;2023-05-07T05:05:58;100909.44;;;13.47;100.00
9141;BME280;46330;50.822;7.126;2023-05-07T05:08:30;100914.53;;;13.53;100.00
9141;BME280;46330;50.822;7.126;2023-05-07T05:11:00;100909.34;;;13.50;100.00
9141;BME280;46330;50.822;7.126;2023-05-07T05:13:30;100916.03;;;13.62;100.00
9141;BME280;46330;50.822;7.126;2023-05-07T05:16:00;100918.19;;;13.78;100.00
9141;BME280;46330;50.822;7.126;2023-05-07T05:18:32;100913.56;;;13.86;100.00
9141;BME280;46330;50.822;7.126;2023-05-07T05:21:00;100917.59;;;13.99;100.00
9141;BME280;46330;50.822;7.126;2023-05-07T05:23:29;100920.38;;;14.24;100.00
9141;BME280;46330;50.822;7.126;2023-05-07T05:25:58;100930.19;;;14.48;100.00
9141;BME280;46330;50.822;7.126;2023-05-07T05:28:29;100931.94;;;14.76;100.00
9141;BME280;46330;50.822;7.126;2023-05-07T05:30:57;100924.25;;;14.97;99.54
9141;BME280;46330;50.822;7.126;2023-05-07T05:33:29;100928.53;;;15.00;99.26
9141;BME280;46330;50.822;7.126;2023-05-07T05:36:04;100927.78;;;14.96;99.31
9141;BME280;46330;50.822;7.126;2023-05-07T05:38:32;100931.97;;;15.02;99.36
9141;BME280;46330;50.822;7.126;2023-05-07T05:41:01;100925.41;;;15.15;98.42
9141;BME280;46330;50.822;7.126;2023-05-07T05:43:29;100914.44;;;15.01;97.78
9141;BME280;46330;50.822;7.126;2023-05-07T05:45:58;100918.09;;;14.97;97.62
9141;BME280;46330;50.822;7.126;2023-05-07T05:48:28;100910.03;;;14.75;97.92
9141;BME280;46330;50.822;7.126;2023-05-07T05:50:58;100913.28;;;14.83;98.45
9141;BME280;46330;50.822;7.126;2023-05-07T05:53:27;100919.50;;;14.81;98.16
9141;BME280;46330;50.822;7.126;2023-05-07T05:55:55;100918.00;;;15.00;97.24
9141;BME280;46330;50.822;7.126;2023-05-07T05:58:23;100931.13;;;15.01;96.19
9141;BME280;46330;50.822;7.126;2023-05-07T06:00:57;100936.56;;;14.97;95.61
9141;BME280;46330;50.822;7.126;2023-05-07T06:03:27;100933.50;;;15.09;95.21
9141;BME280;46330;50.822;7.126;2023-05-07T06:05:57;100924.31;;;15.21;94.16
9141;BME280;46330;50.822;7.126;2023-05-07T06:08:29;100922.91;;;15.37;93.97
9141;BME280;46330;50.822;7.126;2023-05-07T06:10:58;100929.34;;;15.28;94.08
9141;BME280;46330;50.822;7.126;2023-05-07T06:13:27;100925.13;;;15.49;93.09
9141;BME280;46330;50.822;7.126;2023-05-07T06:15:55;100931.84;;;15.57;91.96
9141;BME280;46330;50.822;7.126;2023-05-07T06:18:24;100926.03;;;15.73;90.37
9141;BME280;46330;50.822;7.126;2023-05-07T06:20:52;100935.91;;;15.68;91.63
9141;BME280;46330;50.822;7.126;2023-05-07T06:23:24;100935.53;;;15.78;91.24
9141;BME280;46330;50.822;7.126;2023-05-07T06:25:54;100930.69;;;15.91;90.38
9141;BME280;46330;50.822;7.126;2023-05-07T06:28:27;100942.47;;;15.81;89.45
9141;BME280;46330;50.822;7.126;2023-05-07T06:31:11;100936.06;;;15.63;89.38
9141;BME280;46330;50.822;7.126;2023-05-07T06:33:40;100940.50;;;15.86;89.43
9141;BME280;46330;50.822;7.126;2023-05-07T06:36:08;100940.13;;;15.96;88.08
9141;BME280;46330;50.822;7.126;2023-05-07T06:38:38;100946.16;;;16.00;87.97
9141;BME280;46330;50.822;7.126;2023-05-07T06:41:07;100941.13;;;15.94;88.43
9141;BME280;46330;50.822;7.126;2023-05-07T06:43:37;100951.59;;;15.95;89.21
9141;BME280;46330;50.822;7.126;2023-05-07T06:46:31;100943.94;;;16.12;88.56
9141;BME280;46330;50.822;7.126;2023-05-07T06:48:59;100954.16;;;16.22;87.57
9141;BME280;46330;50.822;7.126;2023-05-07T06:51:28;100954.19;;;16.20;87.35
9141;BME280;46330;50.822;7.126;2023-05-07T06:54:00;100960.06;;;16.28;88.19
9141;BME280;46330;50.822;7.126;2023-05-07T06:56:33;100963.00;;;16.44;86.47
9141;BME280;46330;50.822;7.126;2023-05-07T06:59:03;100956.59;;;16.26;87.21
9141;BME280;46330;50.822;7.126;2023-05-07T07:01:35;100953.69;;;16.57;86.11
9141;BME280;46330;50.822;7.126;2023-05-07T07:04:05;100952.25;;;16.72;85.77
9141;BME280;46330;50.822;7.126;2023-05-07T07:06:33;100960.34;;;16.89;85.05
9141;BME280;46330;50.822;7.126;2023-05-07T07:09:07;100950.16;;;17.01;84.47
9141;BME280;46330;50.822;7.126;2023-05-07T07:11:36;100962.50;;;17.01;83.19
9141;BME280;46330;50.822;7.126;2023-05-07T07:14:05;100958.91;;;17.65;81.10
9141;BME280;46330;50.822;7.126;2023-05-07T07:16:39;100957.81;;;18.10;77.47
9141;BME280;46330;50.822;7.126;2023-05-07T07:19:07;100958.91;;;18.24;75.53
9141;BME280;46330;50.822;7.126;2023-05-07T07:21:36;100959.56;;;18.48;74.50
9141;BME280;46330;50.822;7.126;2023-05-07T07:24:04;100957.69;;;18.52;73.70
9141;BME280;46330;50.822;7.126;2023-05-07T07:26:32;100957.78;;;18.86;72.11
9141;BME280;46330;50.822;7.126;2023-05-07T07:29:02;100971.69;;;18.54;72.46
9141;BME280;46330;50.822;7.126;2023-05-07T07:31:30;100965.03;;;18.64;73.27
9141;BME280;46330;50.822;7.126;2023-05-07T07:33:58;100962.66;;;18.76;71.02
9141;BME280;46330;50.822;7.126;2023-05-07T07:36:26;100960.72;;;18.99;72.09
9141;BME280;46330;50.822;7.126;2023-05-07T07:39:08;100970.03;;;18.12;73.85
9141;BME280;46330;50.822;7.126;2023-05-07T07:41:37;100970.78;;;18.73;72.30
9141;BME280;46330;50.822;7.126;2023-05-07T07:44:06;100972.13;;;18.82;72.97
9141;BME280;46330;50.822;7.126;2023-05-07T07:46:36;100968.91;;;19.11;71.63
9141;BME280;46330;50.822;7.126;2023-05-07T07:49:04;100974.56;;;18.68;72.31
9141;BME280;46330;50.822;7.126;2023-05-07T07:51:32;100969.81;;;18.74;72.47
9141;BME280;46330;50.822;7.126;2023-05-07T07:54:00;100972.81;;;19.21;69.90
9141;BME280;46330;50.822;7.126;2023-05-07T07:56:32;100978.88;;;19.59;68.71
9141;BME280;46330;50.822;7.126;2023-05-07T07:59:02;100978.97;;;19.92;67.68
9141;BME280;46330;50.822;7.126;2023-05-07T08:01:33;100975.56;;;19.20;69.12
9141;BME280;46330;50.822;7.126;2023-05-07T08:04:02;100973.41;;;18.92;71.15
9141;BME280;46330;50.822;7.126;2023-05-07T08:06:35;100983.56;;;19.01;70.39
9141;BME280;46330;50.822;7.126;2023-05-07T08:09:03;100984.84;;;19.28;70.03
9141;BME280;46330;50.822;7.126;2023-05-07T08:11:32;100984.50;;;18.63;71.11
9141;BME280;46330;50.822;7.126;2023-05-07T08:14:00;100976.53;;;19.00;71.78
9141;BME280;46330;50.822;7.126;2023-05-07T08:16:29;100978.56;;;18.95;70.93
9141;BME280;46330;50.822;7.126;2023-05-07T08:19:00;100981.25;;;18.94;70.66
9141;BME280;46330;50.822;7.126;2023-05-07T08:21:28;100982.84;;;18.98;71.19
9141;BME280;46330;50.822;7.126;2023-05-07T08:24:00;100984.94;;;18.91;70.89
9141;BME280;46330;50.822;7.126;2023-05-07T08:26:28;100989.94;;;18.97;71.56
9141;BME280;46330;50.822;7.126;2023-05-07T08:28:56;100991.78;;;19.31;70.30
9141;BME280;46330;50.822;7.126;2023-05-07T08:31:24;100981.41;;;19.45;70.36
9141;BME280;46330;50.822;7.126;2023-05-07T08:33:52;100979.84;;;19.58;69.44
9141;BME280;46330;50.822;7.126;2023-05-07T08:36:22;100987.47;;;19.81;68.33
9141;BME280;46330;50.822;7.126;2023-05-07T08:38:50;100989.88;;;20.03;66.74
9141;BME280;46330;50.822;7.126;2023-05-07T08:41:18;100987.13;;;20.05;66.89
9141;BME280;46330;50.822;7.126;2023-05-07T08:43:49;100989.19;;;19.82;65.58
9141;BME280;46330;50.822;7.126;2023-05-07T08:46:19;100989.28;;;20.31;64.08
9141;BME280;46330;50.822;7.126;2023-05-07T08:48:50;100987.44;;;20.64;65.20
9141;BME280;46330;50.822;7.126;2023-05-07T08:51:20;100992.50;;;21.00;63.18
9141;BME280;46330;50.822;7.126;2023-05-07T08:53:50;100984.75;;;21.72;59.58
9141;BME280;46330;50.822;7.126;2023-05-07T08:56:23;100986.63;;;22.00;57.51
9141;BME280;46330;50.822;7.126;2023-05-07T08:58:53;100976.03;;;22.83;57.83
9141;BME280;46330;50.822;7.126;2023-05-07T09:01:24;100975.28;;;23.08;53.76
9141;BME280;46330;50.822;7.126;2023-05-07T09:03:54;100967.38;;;22.51;54.68
9141;BME280;46330;50.822;7.126;2023-05-07T09:06:23;100975.38;;;23.33;52.16
9141;BME280;46330;50.822;7.126;2023-05-07T09:08:54;100971.41;;;23.53;50.10
9141;BME280;46330;50.822;7.126;2023-05-07T09:11:25;100973.63;;;23.46;51.75
9141;BME280;46330;50.822;7.126;2023-05-07T09:13:57;100975.97;;;24.03;50.63
9141;BME280;46330;50.822;7.126;2023-05-07T09:16:30;100972.16;;;23.28;51.90
9141;BME280;46330;50.822;7.126;2023-05-07T09:18:59;100968.69;;;22.87;52.59
9141;BME280;46330;50.822;7.126;2023-05-07T09:21:27;100968.25;;;23.86;51.97
9141;BME280;46330;50.822;7.126;2023-05-07T09:23:59;100972.19;;;23.93;51.36
9141;BME280;46330;50.822;7.126;2023-05-07T09:26:33;100959.97;;;22.71;51.93
9141;BME280;46330;50.822;7.126;2023-05-07T09:29:04;100961.81;;;23.63;51.84
9141;BME280;46330;50.822;7.126;2023-05-07T09:31:36;100956.97;;;23.16;51.75
9141;BME280;46330;50.822;7.126;2023-05-07T09:34:05;100968.59;;;23.15;52.05
9141;BME280;46330;50.822;7.126;2023-05-07T09:36:36;100960.06;;;22.69;53.31
9141;BME280;46330;50.822;7.126;2023-05-07T09:39:06;100961.69;;;23.25;51.42
9141;BME280;46330;50.822;7.126;2023-05-07T09:41:43;100963.09;;;23.31;52.34
9141;BME280;46330;50.822;7.126;2023-05-07T09:44:21;100966.63;;;23.31;50.39
9141;BME280;46330;50.822;7.126;2023-05-07T09:46:54;100968.66;;;23.80;50.08
9141;BME280;46330;50.822;7.126;2023-05-07T09:49:34;100969.16;;;23.47;50.58
9141;BME280;46330;50.822;7.126;2023-05-07T09:52:06;100966.53;;;24.10;50.36
9141;BME280;46330;50.822;7.126;2023-05-07T09:54:43;100966.81;;;23.55;51.17
9141;BME280;46330;50.822;7.126;2023-05-07T09:57:16;100967.41;;;23.07;51.44
9141;BME280;46330;50.822;7.126;2023-05-07T09:59:52;100962.09;;;22.92;53.26
9141;BME280;46330;50.822;7.126;2023-05-07T10:02:23;100963.75;;;23.99;51.59
9141;BME280;46330;50.822;7.126;2023-05-07T10:04:54;100967.97;;;24.28;50.56
9141;BME280;46330;50.822;7.126;2023-05-07T10:07:28;100957.78;;;24.33;49.08
9141;BME280;46330;50.822;7.126;2023-05-07T10:10:05;100957.41;;;24.99;46.54
9141;BME280;46330;50.822;7.126;2023-05-07T10:12:38;100958.56;;;25.66;46.10
9141;BME280;46330;50.822;7.126;2023-05-07T10:15:13;100957.00;;;24.93;46.48
9141;BME280;46330;50.822;7.126;2023-05-07T10:17:46;100957.75;;;25.88;46.10
9141;BME280;46330;50.822;7.126;2023-05-07T10:20:16;100955.47;;;25.60;47.01
9141;BME280;46330;50.822;7.126;2023-05-07T10:22:47;100963.72;;;25.92;44.09
9141;BME280;46330;50.822;7.126;2023-05-07T10:25:26;100952.09;;;26.26;43.97
9141;BME280;46330;50.822;7.126;2023-05-07T10:28:01;100948.91;;;26.32;43.14
9141;BME280;46330;50.822;7.126;2023-05-07T10:30:39;100949.41;;;26.48;43.15
9141;BME280;46330;50.822;7.126;2023-05-07T10:33:11;100951.81;;;26.51;41.38
9141;BME280;46330;50.822;7.126;2023-05-07T10:35:44;100954.47;;;25.96;43.64
9141;BME280;46330;50.822;7.126;2023-05-07T10:38:14;100960.72;;;25.38;44.36
9141;BME280;46330;50.822;7.126;2023-05-07T10:40:45;100953.66;;;25.60;44.59
9141;BME280;46330;50.822;7.126;2023-05-07T10:43:16;100952.97;;;25.11;44.30
9141;BME280;46330;50.822;7.126;2023-05-07T10:46:14;100952.31;;;25.55;44.01
9141;BME280;46330;50.822;7.126;2023-05-07T10:49:12;100956.00;;;25.65;44.23
9141;BME280;46330;50.822;7.126;2023-05-07T10:52:11;100957.94;;;26.42;43.42
9141;BME280;46330;50.822;7.126;2023-05-07T10:54:41;100948.78;;;25.31;43.96
9141;BME280;46330;50.822;7.126;2023-05-07T10:57:38;100942.69;;;26.43;43.38
9141;BME280;46330;50.822;7.126;2023-05-07T11:00:42;100945.59;;;26.51;42.72
9141;BME280;46330;50.822;7.126;2023-05-07T11:03:22;100942.91;;;25.95;42.13
9141;BME280;46330;50.822;7.126;2023-05-07T11:06:15;100946.50;;;26.40;42.15
9141;BME280;46330;50.822;7.126;2023-05-07T11:09:03;100943.25;;;27.22;40.06
9141;BME280;46330;50.822;7.126;2023-05-07T11:11:47;100944.00;;;28.38;38.03
9141;BME280;46330;50.822;7.126;2023-05-07T11:14:45;100940.59;;;28.66;36.88
9141;BME280;46330;50.822;7.126;2023-05-07T11:17:25;100935.66;;;27.80;37.71
9141;BME280;46330;50.822;7.126;2023-05-07T11:20:02;100927.97;;;28.26;36.94
9141;BME280;46330;50.822;7.126;2023-05-07T11:22:43;100929.88;;;26.57;39.16
9141;BME280;46330;50.822;7.126;2023-05-07T11:25:18;100930.16;;;26.97;38.70
9141;BME280;46330;50.822;7.126;2023-05-07T11:28:04;100930.66;;;27.55;38.10
9141;BME280;46330;50.822;7.126;2023-05-07T11:30:48;100932.38;;;27.76;37.87
9141;BME280;46330;50.822;7.126;2023-05-07T11:33:20;100918.56;;;28.11;37.96
9141;BME280;46330;50.822;7.126;2023-05-07T11:35:54;100922.88;;;27.52;37.16
9141;BME280;46330;50.822;7.126;2023-05-07T11:38:35;100923.91;;;27.60;35.45
9141;BME280;46330;50.822;7.126;2023-05-07T11:41:04;100919.63;;;28.69;35.69
9141;BME280;46330;50.822;7.126;2023-05-07T11:43:34;100925.16;;;27.77;33.72
9141;BME280;46330;50.822;7.126;2023-05-07T11:46:10;100925.34;;;27.12;35.46
9141;BME280;46330;50.822;7.126;2023-05-07T11:48:39;100927.38;;;27.72;33.68
9141;BME280;46330;50.822;7.126;2023-05-07T11:51:09;100923.97;;;27.70;34.23
9141;BME280;46330;50.822;7.126;2023-05-07T11:53:42;100932.41;;;27.65;35.02
9141;BME280;46330;50.822;7.126;2023-05-07T11:56:15;100919.78;;;27.24;34.98
9141;BME280;46330;50.822;7.126;2023-05-07T11:58:45;100924.25;;;27.67;34.42
9141;BME280;46330;50.822;7.126;2023-05-07T12:01:15;100925.09;;;26.83;37.50
9141;BME280;46330;50.822;7.126;2023-05-07T12:03:45;100921.41;;;27.16;35.62
9141;BME280;46330;50.822;7.126;2023-05-07T12:06:15;100923.56;;;27.74;35.70
9141;BME280;46330;50.822;7.126;2023-05-07T12:08:44;100921.44;;;26.51;37.04
9141;BME280;46330;50.822;7.126;2023-05-07T12:11:15;100926.25;;;26.36;36.83
9141;BME280;46330;50.822;7.126;2023-05-07T12:13:49;100920.94;;;26.68;35.19
9141;BME280;46330;50.822;7.126;2023-05-07T12:16:19;100914.88;;;26.44;37.34
9141;BME280;46330;50.822;7.126;2023-05-07T12:18:48;100918.06;;;26.15;37.49
9141;BME280;46330;50.822;7.126;2023-05-07T12:21:16;100919.19;;;25.32;38.35
9141;BME280;46330;50.822;7.126;2023-05-07T12:23:45;100924.56;;;25.32;38.40
9141;BME280;46330;50.822;7.126;2023-05-07T12:26:13;100922.94;;;25.19;39.39
9141;BME280;46330;50.822;7.126;2023-05-07T12:28:42;100919.13;;;25.10;39.36
9141;BME280;46330;50.822;7.126;2023-05-07T12:31:10;100924.47;;;25.45;39.95
9141;BME280;46330;50.822;7.126;2023-05-07T12:33:39;100924.84;;;25.40;39.58
9141;BME280;46330;50.822;7.126;2023-05-07T12:36:08;100928.03;;;24.87;39.85
9141;BME280;46330;50.822;7.126;2023-05-07T12:38:36;100929.06;;;24.97;39.56
9141;BME280;46330;50.822;7.126;2023-05-07T12:41:06;100931.81;;;25.19;42.39
9141;BME280;46330;50.822;7.126;2023-05-07T12:43:35;100925.09;;;25.13;42.11
9141;BME280;46330;50.822;7.126;2023-05-07T12:46:05;100931.28;;;25.03;40.16
9141;BME280;46330;50.822;7.126;2023-05-07T12:48:35;100928.78;;;24.76;41.74
9141;BME280;46330;50.822;7.126;2023-05-07T12:51:05;100932.13;;;23.93;44.02
9141;BME280;46330;50.822;7.126;2023-05-07T12:53:39;100930.19;;;23.82;45.54
9141;BME280;46330;50.822;7.126;2023-05-07T12:56:09;100943.00;;;23.77;46.07
9141;BME280;46330;50.822;7.126;2023-05-07T12:58:37;100931.25;;;23.92;48.48
9141;BME280;46330;50.822;7.126;2023-05-07T13:01:06;100940.78;;;23.96;50.48
9141;BME280;46330;50.822;7.126;2023-05-07T13:03:37;100944.13;;;24.13;49.18
9141;BME280;46330;50.822;7.126;2023-05-07T13:06:08;100945.44;;;24.56;51.01
9141;BME280;46330;50.822;7.126;2023-05-07T13:08:40;100946.00;;;24.72;54.59
9141;BME280;46330;50.822;7.126;2023-05-07T13:11:10;100944.44;;;24.57;53.78
9141;BME280;46330;50.822;7.126;2023-05-07T13:13:40;100943.22;;;24.50;54.76
9141;BME280;46330;50.822;7.126;2023-05-07T13:16:09;100940.19;;;24.54;58.42